createdAt,value
2022-07-31T00:00:45.985Z,22.66
2022-07-31T00:03:15.348Z,22.67
2022-07-31T00:05:43.335Z,22.65
2022-07-31T00:08:11.659Z,22.66
2022-07-31T00:10:39.725Z,22.63
2022-07-31T00:13:07.991Z,22.64
2022-07-31T00:15:39.790Z,22.64
2022-07-31T00:18:08.729Z,22.65
2022-07-31T00:20:36.845Z,22.68
2022-07-31T00:23:05.151Z,22.74
2022-07-31T00:25:34.273Z,22.70
2022-07-31T00:28:02.439Z,22.67
2022-07-31T00:30:30.943Z,22.65
2022-07-31T00:33:00.213Z,22.54
2022-07-31T00:35:28.315Z,22.40
2022-07-31T00:38:18.239Z,22.47
2022-07-31T00:40:48.826Z,22.36
2022-07-31T00:43:18.363Z,22.34
2022-07-31T00:45:47.303Z,22.21
2022-07-31T00:48:22.567Z,21.98
2022-07-31T00:50:51.361Z,21.76
2022-07-31T00:53:19.263Z,21.66
2022-07-31T00:55:51.396Z,21.61
2022-07-31T00:58:20.391Z,21.58
2022-07-31T01:00:48.567Z,21.46
2022-07-31T01:03:16.566Z,21.39
2022-07-31T01:05:45.989Z,21.36
2022-07-31T01:08:14.002Z,21.27
2022-07-31T01:10:53.209Z,21.22
2022-07-31T01:13:28.156Z,21.09
2022-07-31T01:15:59.194Z,21.02
2022-07-31T01:18:31.207Z,21.02
2022-07-31T01:21:04.747Z,20.98
2022-07-31T01:23:51.043Z,20.91
2022-07-31T01:26:43.135Z,20.90
2022-07-31T01:29:25.880Z,20.95
2022-07-31T01:32:02.083Z,20.95
2022-07-31T01:34:37.916Z,21.06
2022-07-31T01:37:15.002Z,21.12
2022-07-31T01:39:47.940Z,21.21
2022-07-31T01:42:19.490Z,21.22
2022-07-31T01:44:54.242Z,20.98
2022-07-31T01:47:26.262Z,20.79
2022-07-31T01:49:56.972Z,20.63
2022-07-31T01:52:29.228Z,20.65
2022-07-31T01:54:59.827Z,20.48
2022-07-31T01:57:32.592Z,20.48
2022-07-31T02:00:33.272Z,20.44
2022-07-31T02:02:58.729Z,20.46
2022-07-31T02:05:39.930Z,20.45
2022-07-31T02:08:10.484Z,20.35
2022-07-31T02:10:41.711Z,20.35
2022-07-31T02:13:12.527Z,20.39
2022-07-31T02:15:43.571Z,20.39
2022-07-31T02:18:13.329Z,20.36
2022-07-31T02:20:51.992Z,20.38
2022-07-31T02:23:19.925Z,20.11
2022-07-31T02:25:49.217Z,19.43
2022-07-31T02:28:20.412Z,19.19
2022-07-31T02:30:52.907Z,19.18
2022-07-31T02:33:23.805Z,19.30
2022-07-31T02:35:56.433Z,19.40
2022-07-31T02:38:27.513Z,19.61
2022-07-31T02:40:59.845Z,19.70
2022-07-31T02:43:32.028Z,19.69
2022-07-31T02:46:07.225Z,19.28
2022-07-31T02:48:37.183Z,19.06
2022-07-31T02:51:09.647Z,19.09
2022-07-31T02:53:38.850Z,19.15
2022-07-31T02:56:10.978Z,19.12
2022-07-31T02:58:42.239Z,18.96
2022-07-31T03:01:18.713Z,18.87
2022-07-31T03:03:47.525Z,18.84
2022-07-31T03:06:16.348Z,18.60
2022-07-31T03:08:44.579Z,18.60
2022-07-31T03:11:15.407Z,18.70
2022-07-31T03:13:44.677Z,18.94
2022-07-31T03:16:14.202Z,19.04
2022-07-31T03:18:44.703Z,19.07
2022-07-31T03:21:14.487Z,19.14
2022-07-31T03:23:43.498Z,18.88
2022-07-31T03:26:18.942Z,18.80
2022-07-31T03:28:47.061Z,19.06
2022-07-31T03:31:15.069Z,19.18
2022-07-31T03:33:44.681Z,19.32
2022-07-31T03:36:15.046Z,19.35
2022-07-31T03:38:46.471Z,19.02
2022-07-31T03:41:26.012Z,18.90
2022-07-31T03:43:54.932Z,19.08
2022-07-31T03:46:25.086Z,19.25
2022-07-31T03:48:56.120Z,19.33
2022-07-31T03:51:27.952Z,19.12
2022-07-31T03:53:56.205Z,18.94
2022-07-31T03:56:54.610Z,18.97
2022-07-31T03:59:24.384Z,19.17
2022-07-31T04:01:57.641Z,19.14
2022-07-31T04:04:46.904Z,19.30
2022-07-31T04:07:15.380Z,19.39
2022-07-31T04:09:43.306Z,19.46
2022-07-31T04:12:12.934Z,19.35
2022-07-31T04:14:41.649Z,19.53
2022-07-31T04:17:10.384Z,19.59
2022-07-31T04:19:39.392Z,19.65
2022-07-31T04:22:09.642Z,19.68
2022-07-31T04:24:39.467Z,19.69
2022-07-31T04:27:27.727Z,19.76
2022-07-31T04:29:57.227Z,19.88
2022-07-31T04:32:25.883Z,20.00
2022-07-31T04:34:59.056Z,20.12
2022-07-31T04:37:28.458Z,20.16
2022-07-31T04:39:57.376Z,20.29
2022-07-31T04:42:26.241Z,20.37
2022-07-31T04:44:54.514Z,20.45
2022-07-31T04:47:22.762Z,20.47
2022-07-31T04:49:52.479Z,20.37
2022-07-31T04:52:20.511Z,20.26
2022-07-31T04:54:52.234Z,20.17
2022-07-31T04:57:22.146Z,20.04
2022-07-31T04:59:59.933Z,20.01
2022-07-31T05:02:29.719Z,20.04
2022-07-31T05:04:58.404Z,20.00
2022-07-31T05:07:32.778Z,20.02
2022-07-31T05:10:07.169Z,20.15
2022-07-31T05:12:36.739Z,20.14
2022-07-31T05:15:05.168Z,20.30
2022-07-31T05:17:33.448Z,20.48
2022-07-31T05:20:20.833Z,20.58
2022-07-31T05:23:12.162Z,20.68
2022-07-31T05:25:53.159Z,20.86
2022-07-31T05:28:27.151Z,20.99
2022-07-31T05:30:59.284Z,21.18
2022-07-31T05:33:29.421Z,21.32
2022-07-31T05:35:58.804Z,21.35
2022-07-31T05:38:26.733Z,21.37
2022-07-31T05:41:15.141Z,21.41
2022-07-31T05:44:18.478Z,21.40
2022-07-31T05:46:48.017Z,21.42
2022-07-31T05:49:16.429Z,21.45
2022-07-31T05:51:47.198Z,21.42
2022-07-31T05:54:15.416Z,21.39
2022-07-31T05:57:03.431Z,21.36
2022-07-31T05:59:40.234Z,21.38
2022-07-31T06:02:08.784Z,21.50
2022-07-31T06:04:58.510Z,21.70
2022-07-31T06:07:28.943Z,21.79
2022-07-31T06:09:57.947Z,21.91
2022-07-31T06:12:27.455Z,22.06
2022-07-31T06:14:55.444Z,22.10
2022-07-31T06:17:49.468Z,22.13
2022-07-31T06:20:26.408Z,22.14
2022-07-31T06:22:54.869Z,22.13
2022-07-31T06:25:31.793Z,22.24
2022-07-31T06:28:04.188Z,22.30
2022-07-31T06:30:38.374Z,22.22
2022-07-31T06:33:08.341Z,22.23
2022-07-31T06:35:37.298Z,22.27
2022-07-31T06:38:37.409Z,22.73
2022-07-31T06:41:43.045Z,22.74
2022-07-31T06:44:31.819Z,23.01
2022-07-31T06:47:22.029Z,23.33
2022-07-31T06:50:09.753Z,23.44
2022-07-31T06:52:47.097Z,23.39
2022-07-31T06:55:15.372Z,23.27
2022-07-31T06:57:43.617Z,23.16
2022-07-31T07:00:20.307Z,23.20
2022-07-31T07:02:50.075Z,23.24
2022-07-31T07:05:18.756Z,23.31
2022-07-31T07:07:51.387Z,23.47
2022-07-31T07:10:19.620Z,23.76
2022-07-31T07:13:00.782Z,23.94
2022-07-31T07:15:35.363Z,23.94
2022-07-31T07:18:03.617Z,23.94
2022-07-31T07:20:45.686Z,23.90
2022-07-31T07:23:14.376Z,23.65
2022-07-31T07:26:03.138Z,23.45
2022-07-31T07:28:33.409Z,23.42
2022-07-31T07:31:05.717Z,23.71
2022-07-31T07:33:41.335Z,24.05
2022-07-31T07:36:23.410Z,24.23
2022-07-31T07:39:19.047Z,24.06
2022-07-31T07:41:48.207Z,23.93
2022-07-31T07:44:16.337Z,23.81
2022-07-31T07:46:46.455Z,23.87
2022-07-31T07:49:18.608Z,23.97
2022-07-31T07:52:08.909Z,24.14
2022-07-31T07:54:40.490Z,24.42
2022-07-31T07:57:37.988Z,24.95
2022-07-31T08:00:25.929Z,25.37
2022-07-31T08:03:49.496Z,25.40
2022-07-31T08:05:52.712Z,25.44
2022-07-31T08:08:22.666Z,25.53
2022-07-31T08:10:51.422Z,25.77
2022-07-31T08:13:41.014Z,25.92
2022-07-31T08:16:21.857Z,26.62
2022-07-31T08:18:55.509Z,27.40
2022-07-31T08:21:23.790Z,27.80
2022-07-31T08:23:52.755Z,27.91
2022-07-31T08:26:21.561Z,27.74
2022-07-31T08:28:51.267Z,27.38
2022-07-31T08:31:23.618Z,27.21
2022-07-31T08:34:11.564Z,27.20
2022-07-31T08:37:00.016Z,27.30
2022-07-31T08:39:49.478Z,27.17
2022-07-31T08:42:18.451Z,27.19
2022-07-31T08:44:47.118Z,27.06
2022-07-31T08:47:19.775Z,27.73
2022-07-31T08:49:51.643Z,27.99
2022-07-31T08:52:21.623Z,27.97
2022-07-31T08:55:08.785Z,27.86
2022-07-31T08:57:37.472Z,28.21
2022-07-31T09:00:07.281Z,28.57
2022-07-31T09:02:35.465Z,28.95
2022-07-31T09:05:43.456Z,28.99
2022-07-31T09:08:14.703Z,28.86
2022-07-31T09:10:49.912Z,29.01
2022-07-31T09:13:19.907Z,29.21
2022-07-31T09:15:52.604Z,28.97
2022-07-31T09:18:24.846Z,29.16
2022-07-31T09:21:15.458Z,29.34
2022-07-31T09:23:47.688Z,29.08
2022-07-31T09:26:16.624Z,28.94
2022-07-31T09:28:46.598Z,28.84
2022-07-31T09:31:14.959Z,28.52
2022-07-31T09:34:06.853Z,28.36
2022-07-31T09:36:36.485Z,28.35
2022-07-31T09:39:27.009Z,28.15
2022-07-31T09:42:16.587Z,27.99
2022-07-31T09:44:53.761Z,28.10
2022-07-31T09:47:23.259Z,28.11
2022-07-31T09:49:56.654Z,28.22
2022-07-31T09:52:29.067Z,28.15
2022-07-31T09:55:14.259Z,27.97
2022-07-31T09:57:54.468Z,27.86
2022-07-31T10:00:24.701Z,27.98
2022-07-31T10:02:57.906Z,28.17
2022-07-31T10:05:28.862Z,28.38
2022-07-31T10:08:02.643Z,28.61
2022-07-31T10:10:55.690Z,28.52
2022-07-31T10:13:55.795Z,28.64
2022-07-31T10:16:27.358Z,28.75
2022-07-31T10:19:01.105Z,29.25
2022-07-31T10:21:42.159Z,31.36
2022-07-31T10:24:28.315Z,34.58
2022-07-31T10:27:01.551Z,36.41
2022-07-31T10:29:41.046Z,36.55
2022-07-31T10:32:10.794Z,35.99
2022-07-31T10:35:01.990Z,35.48
2022-07-31T10:37:58.997Z,33.86
2022-07-31T10:41:22.256Z,36.68
2022-07-31T10:43:56.948Z,36.80
2022-07-31T10:46:41.290Z,34.98
2022-07-31T10:49:48.899Z,35.11
2022-07-31T10:52:43.088Z,35.80
2022-07-31T10:55:19.366Z,35.74
2022-07-31T10:58:11.682Z,35.76
2022-07-31T11:01:06.677Z,37.04
2022-07-31T11:03:46.698Z,36.12
2022-07-31T11:06:41.613Z,32.45
2022-07-31T11:09:30.836Z,34.91
2022-07-31T11:12:18.587Z,36.82
2022-07-31T11:15:23.005Z,37.37
2022-07-31T11:18:33.943Z,37.05
2022-07-31T11:21:28.837Z,36.77
2022-07-31T11:24:02.292Z,36.83
2022-07-31T11:26:41.997Z,36.57
2022-07-31T11:30:00.870Z,35.03
2022-07-31T11:32:15.490Z,38.56
2022-07-31T11:34:48.691Z,36.11
2022-07-31T11:37:22.829Z,34.66
2022-07-31T11:39:52.765Z,33.94
2022-07-31T11:42:26.573Z,32.72
2022-07-31T11:45:08.353Z,31.80
2022-07-31T11:48:12.522Z,33.49
2022-07-31T11:50:32.397Z,36.79
2022-07-31T11:53:04.461Z,38.29
2022-07-31T11:55:33.017Z,38.69
2022-07-31T11:58:01.078Z,38.67
2022-07-31T12:00:32.798Z,37.85
2022-07-31T12:03:02.953Z,38.20
2022-07-31T12:05:37.624Z,37.09
2022-07-31T12:08:12.799Z,38.08
2022-07-31T12:10:41.694Z,38.48
2022-07-31T12:13:16.154Z,38.48
2022-07-31T12:15:58.276Z,36.48
2022-07-31T12:18:30.217Z,36.90
2022-07-31T12:21:00.238Z,36.55
2022-07-31T12:23:40.834Z,37.10
2022-07-31T12:26:11.718Z,38.84
2022-07-31T12:28:39.761Z,38.05
2022-07-31T12:31:07.780Z,38.45
2022-07-31T12:33:44.328Z,38.25
2022-07-31T12:36:17.261Z,37.99
2022-07-31T12:38:48.273Z,38.66
2022-07-31T12:41:18.394Z,38.77
2022-07-31T12:43:51.466Z,38.88
2022-07-31T12:46:22.134Z,39.13
2022-07-31T12:48:51.887Z,38.92
2022-07-31T12:51:44.129Z,36.67
2022-07-31T12:54:10.920Z,35.31
2022-07-31T12:56:40.575Z,34.40
2022-07-31T12:59:09.549Z,34.93
2022-07-31T13:01:38.455Z,36.38
2022-07-31T13:04:19.128Z,37.14
2022-07-31T13:06:51.379Z,35.62
2022-07-31T13:09:20.258Z,34.93
2022-07-31T13:11:49.912Z,36.50
2022-07-31T13:14:21.800Z,36.26
2022-07-31T13:16:53.404Z,37.37
2022-07-31T13:19:23.804Z,37.77
2022-07-31T13:21:51.956Z,38.55
2022-07-31T13:24:24.771Z,36.77
2022-07-31T13:26:53.722Z,35.76
2022-07-31T13:29:21.697Z,36.97
2022-07-31T13:31:50.126Z,36.96
2022-07-31T13:34:18.233Z,37.25
2022-07-31T13:36:47.960Z,35.73
2022-07-31T13:39:16.380Z,36.14
2022-07-31T13:41:44.459Z,37.26
2022-07-31T13:44:13.321Z,37.70
2022-07-31T13:46:41.676Z,37.73
2022-07-31T13:49:10.509Z,37.68
2022-07-31T13:51:39.629Z,35.07
2022-07-31T13:54:09.426Z,33.85
2022-07-31T13:56:42.969Z,33.91
2022-07-31T13:59:13.591Z,35.64
2022-07-31T14:02:03.062Z,36.63
2022-07-31T14:04:32.900Z,37.41
2022-07-31T14:07:07.641Z,37.47
2022-07-31T14:09:37.984Z,37.20
2022-07-31T14:12:06.703Z,37.09
2022-07-31T14:14:35.352Z,37.44
2022-07-31T14:17:05.072Z,36.75
2022-07-31T14:19:44.096Z,36.89
2022-07-31T14:22:14.161Z,36.85
2022-07-31T14:24:50.703Z,36.32
2022-07-31T14:27:20.961Z,35.75
2022-07-31T14:29:49.652Z,35.40
2022-07-31T14:32:19.619Z,34.34
2022-07-31T14:34:47.968Z,33.62
2022-07-31T14:37:16.065Z,33.99
2022-07-31T14:39:45.486Z,33.72
2022-07-31T14:42:13.770Z,33.35
2022-07-31T14:44:42.806Z,33.59
2022-07-31T14:47:11.324Z,34.00
2022-07-31T14:50:07.860Z,34.19
2022-07-31T14:52:28.510Z,34.54
2022-07-31T14:54:58.642Z,34.71
2022-07-31T14:57:31.404Z,34.09
2022-07-31T14:59:59.717Z,33.95
2022-07-31T15:02:27.860Z,33.63
2022-07-31T15:04:56.697Z,33.72
2022-07-31T15:07:46.256Z,33.79
2022-07-31T15:10:14.978Z,34.20
2022-07-31T15:12:45.867Z,34.15
2022-07-31T15:15:13.963Z,34.24
2022-07-31T15:17:41.857Z,33.98
2022-07-31T15:20:11.564Z,33.99
2022-07-31T15:22:39.915Z,34.10
2022-07-31T15:25:10.185Z,34.13
2022-07-31T15:27:39.956Z,34.19
2022-07-31T15:30:09.122Z,33.94
2022-07-31T15:32:38.738Z,33.90
2022-07-31T15:35:09.051Z,34.06
2022-07-31T15:37:39.833Z,33.82
2022-07-31T15:40:10.874Z,33.76
2022-07-31T15:42:42.841Z,33.42
2022-07-31T15:45:14.690Z,33.13
2022-07-31T15:47:43.496Z,33.20
2022-07-31T15:50:14.248Z,33.12
2022-07-31T15:52:42.683Z,33.03
2022-07-31T15:55:11.647Z,32.95
2022-07-31T15:57:41.168Z,32.80
2022-07-31T16:00:12.046Z,32.79
2022-07-31T16:02:41.600Z,32.80
2022-07-31T16:05:21.939Z,32.87
2022-07-31T16:08:32.746Z,32.22
2022-07-31T16:10:52.499Z,31.93
2022-07-31T16:13:24.234Z,32.34
2022-07-31T16:15:54.834Z,32.50
2022-07-31T16:18:22.721Z,32.39
2022-07-31T16:20:50.793Z,32.40
2022-07-31T16:23:18.965Z,32.72
2022-07-31T16:25:47.529Z,32.61
2022-07-31T16:28:15.484Z,32.61
2022-07-31T16:30:45.672Z,32.41
2022-07-31T16:33:14.020Z,32.49
2022-07-31T16:35:42.084Z,32.39
2022-07-31T16:38:10.441Z,32.34
2022-07-31T16:40:38.428Z,32.21
2022-07-31T16:43:51.029Z,32.22
2022-07-31T16:45:58.005Z,32.21
2022-07-31T16:48:26.723Z,32.06
2022-07-31T16:50:55.124Z,32.04
2022-07-31T16:54:13.550Z,31.90
2022-07-31T16:56:12.773Z,31.84
2022-07-31T16:58:41.310Z,32.00
2022-07-31T17:01:58.785Z,31.90
2022-07-31T17:04:03.127Z,31.81
2022-07-31T17:06:36.412Z,31.80
2022-07-31T17:09:15.302Z,31.70
2022-07-31T17:11:47.042Z,31.51
2022-07-31T17:14:15.517Z,31.41
2022-07-31T17:16:48.101Z,31.38
2022-07-31T17:19:16.868Z,31.36
2022-07-31T17:22:05.020Z,31.37
2022-07-31T17:24:33.131Z,31.44
2022-07-31T17:27:00.965Z,31.42
2022-07-31T17:29:28.845Z,31.20
2022-07-31T17:31:58.469Z,31.19
2022-07-31T17:34:26.689Z,31.23
2022-07-31T17:36:55.145Z,31.25
2022-07-31T17:39:30.199Z,31.13
2022-07-31T17:41:59.718Z,31.06
2022-07-31T17:44:28.252Z,30.89
2022-07-31T17:46:57.934Z,31.04
2022-07-31T17:49:28.794Z,30.94
2022-07-31T17:51:58.885Z,30.76
2022-07-31T17:54:30.365Z,30.53
2022-07-31T17:56:58.676Z,30.64
2022-07-31T17:59:27.304Z,30.56
2022-07-31T18:01:59.897Z,30.39
2022-07-31T18:04:30.125Z,30.23
2022-07-31T18:06:58.445Z,30.18
2022-07-31T18:09:27.320Z,30.09
2022-07-31T18:11:56.442Z,29.93
2022-07-31T18:14:25.100Z,29.86
2022-07-31T18:16:53.601Z,29.74
2022-07-31T18:19:22.636Z,29.78
2022-07-31T18:21:53.349Z,29.65
2022-07-31T18:24:22.668Z,29.59
2022-07-31T18:26:51.179Z,29.70
2022-07-31T18:29:23.175Z,29.56
2022-07-31T18:31:51.283Z,29.50
2022-07-31T18:34:19.442Z,29.45
2022-07-31T18:36:52.909Z,29.38
2022-07-31T18:39:24.800Z,29.40
2022-07-31T18:41:52.918Z,29.14
2022-07-31T18:44:22.024Z,29.08
2022-07-31T18:46:56.181Z,28.94
2022-07-31T18:51:03.014Z,28.87
2022-07-31T18:52:12.936Z,28.73
2022-07-31T18:54:45.692Z,28.72
2022-07-31T18:57:14.314Z,28.67
2022-07-31T18:59:43.136Z,28.56
2022-07-31T19:02:12.614Z,28.48
2022-07-31T19:04:41.058Z,28.44
2022-07-31T19:07:09.157Z,28.31
2022-07-31T19:09:37.362Z,28.24
2022-07-31T19:12:08.684Z,28.18
2022-07-31T19:14:37.451Z,28.08
2022-07-31T19:17:05.803Z,28.05
2022-07-31T19:19:54.396Z,27.96
2022-07-31T19:22:22.960Z,27.86
2022-07-31T19:24:52.661Z,27.75
2022-07-31T19:27:22.536Z,27.82
2022-07-31T19:30:13.666Z,27.84
2022-07-31T19:32:41.772Z,27.85
2022-07-31T19:35:10.375Z,27.70
2022-07-31T19:37:38.297Z,27.61
2022-07-31T19:40:08.666Z,27.55
2022-07-31T19:42:39.603Z,27.51
2022-07-31T19:45:09.221Z,27.48
2022-07-31T19:47:37.135Z,27.36
2022-07-31T19:50:07.494Z,27.09
2022-07-31T19:52:36.404Z,26.97
2022-07-31T19:55:05.391Z,26.94
2022-07-31T19:57:33.398Z,26.86
2022-07-31T20:00:02.763Z,26.83
2022-07-31T20:02:32.373Z,26.77
2022-07-31T20:05:00.537Z,26.75
2022-07-31T20:07:32.707Z,26.58
2022-07-31T20:10:01.819Z,26.50
2022-07-31T20:12:29.693Z,26.47
2022-07-31T20:14:57.873Z,26.43
2022-07-31T20:17:27.203Z,26.39
2022-07-31T20:20:15.129Z,26.35
2022-07-31T20:22:43.704Z,26.29
2022-07-31T20:25:20.512Z,26.33
2022-07-31T20:27:49.421Z,26.36
2022-07-31T20:30:21.901Z,26.30
2022-07-31T20:32:52.844Z,26.32
2022-07-31T20:35:47.149Z,26.36
2022-07-31T20:38:15.533Z,26.37
2022-07-31T20:40:51.151Z,26.35
2022-07-31T20:43:23.037Z,26.31
2022-07-31T20:45:51.852Z,26.19
2022-07-31T20:48:24.186Z,26.17
2022-07-31T20:50:52.831Z,26.04
2022-07-31T20:53:22.033Z,25.98
2022-07-31T20:55:51.415Z,25.95
2022-07-31T20:58:19.902Z,25.95
2022-07-31T21:00:48.932Z,25.88
2022-07-31T21:03:17.917Z,25.76
2022-07-31T21:05:47.982Z,25.75
2022-07-31T21:08:16.807Z,25.85
2022-07-31T21:10:44.968Z,25.78
2022-07-31T21:13:13.630Z,25.72
2022-07-31T21:15:45.054Z,25.68
2022-07-31T21:18:15.823Z,25.74
2022-07-31T21:20:49.806Z,25.76
2022-07-31T21:23:23.483Z,25.77
2022-07-31T21:25:52.185Z,25.67
2022-07-31T21:28:20.469Z,25.42
2022-07-31T21:30:49.083Z,25.52
2022-07-31T21:33:18.537Z,25.61
2022-07-31T21:35:47.312Z,25.76
2022-07-31T21:38:16.229Z,25.74
2022-07-31T21:40:46.734Z,25.74
2022-07-31T21:43:16.640Z,25.73
2022-07-31T21:45:55.396Z,25.77
2022-07-31T21:48:25.771Z,25.82
2022-07-31T21:50:54.848Z,25.89
2022-07-31T21:53:23.784Z,25.82
2022-07-31T21:55:53.069Z,25.88
2022-07-31T21:58:22.977Z,25.77
2022-07-31T22:00:51.972Z,25.72
2022-07-31T22:03:20.181Z,25.71
2022-07-31T22:06:08.090Z,25.74
2022-07-31T22:08:36.225Z,25.69
2022-07-31T22:11:06.864Z,25.65
2022-07-31T22:13:36.773Z,25.60
2022-07-31T22:16:08.859Z,25.64
2022-07-31T22:18:37.944Z,25.59
2022-07-31T22:21:09.191Z,25.58
2022-07-31T22:23:37.686Z,25.56
2022-07-31T22:26:08.113Z,25.52
2022-07-31T22:28:36.617Z,25.48
2022-07-31T22:31:04.663Z,25.35
2022-07-31T22:33:32.799Z,25.26
2022-07-31T22:36:02.624Z,25.16
2022-07-31T22:38:31.765Z,25.11
2022-07-31T22:41:00.103Z,25.02
2022-07-31T22:44:10.795Z,24.98
2022-07-31T22:46:20.311Z,24.87
2022-07-31T22:48:49.151Z,24.83
2022-07-31T22:51:18.700Z,24.72
2022-07-31T22:53:50.336Z,24.71
2022-07-31T22:56:19.355Z,24.71
2022-07-31T22:58:52.664Z,24.70
2022-07-31T23:01:21.444Z,24.69
2022-07-31T23:03:49.398Z,24.64
2022-07-31T23:06:31.688Z,24.61
2022-07-31T23:09:01.355Z,24.64
2022-07-31T23:11:29.673Z,24.53
2022-07-31T23:13:59.780Z,24.55
2022-07-31T23:16:28.050Z,24.45
2022-07-31T23:18:56.105Z,24.32
2022-07-31T23:21:24.110Z,24.35
2022-07-31T23:23:52.914Z,24.28
2022-07-31T23:26:23.874Z,24.14
2022-07-31T23:28:53.212Z,24.04
2022-07-31T23:31:23.569Z,23.95
2022-07-31T23:33:52.007Z,23.87
2022-07-31T23:36:20.488Z,23.79
2022-07-31T23:38:48.542Z,23.70
2022-07-31T23:41:36.487Z,23.77
2022-07-31T23:44:03.889Z,23.79
2022-07-31T23:46:34.226Z,23.87
2022-07-31T23:49:02.543Z,23.99
2022-07-31T23:51:30.876Z,24.03
2022-07-31T23:53:58.710Z,24.13
2022-07-31T23:56:26.680Z,24.02
2022-07-31T23:58:54.601Z,23.89
